createdAt,value
2022-12-19T00:01:29.763Z,28.20
2022-12-19T00:03:03.187Z,25.50
2022-12-19T00:04:35.804Z,25.60
2022-12-19T00:06:08.227Z,22.50
2022-12-19T00:07:40.481Z,30.90
2022-12-19T00:09:13.819Z,20.00
2022-12-19T00:10:57.460Z,26.30
2022-12-19T00:12:29.579Z,26.10
2022-12-19T00:14:03.312Z,22.80
2022-12-19T00:15:35.983Z,23.50
2022-12-19T00:17:08.494Z,22.60
2022-12-19T00:18:43.473Z,27.10
2022-12-19T00:20:18.466Z,25.00
2022-12-19T00:21:50.587Z,23.90
2022-12-19T00:23:22.746Z,24.40
2022-12-19T00:24:54.677Z,27.90
2022-12-19T00:26:33.100Z,24.20
2022-12-19T00:28:05.056Z,28.40
2022-12-19T00:29:37.505Z,27.50
2022-12-19T00:31:13.700Z,23.70
2022-12-19T00:32:45.682Z,20.40
2022-12-19T00:34:18.789Z,26.30
2022-12-19T00:35:50.848Z,22.70
2022-12-19T00:37:24.744Z,27.40
2022-12-19T00:39:00.570Z,24.70
2022-12-19T00:40:32.567Z,20.00
2022-12-19T00:42:04.882Z,18.10
2022-12-19T00:43:37.570Z,21.20
2022-12-19T00:45:10.083Z,27.10
2022-12-19T00:46:44.512Z,25.20
2022-12-19T00:48:24.633Z,24.50
2022-12-19T00:49:56.540Z,24.10
2022-12-19T00:51:32.525Z,25.50
2022-12-19T00:53:04.679Z,26.30
2022-12-19T00:54:39.085Z,21.10
2022-12-19T00:56:18.866Z,26.00
2022-12-19T00:57:52.560Z,24.20
2022-12-19T00:59:27.315Z,24.50
2022-12-19T01:01:13.778Z,24.70
2022-12-19T01:02:45.951Z,27.70
2022-12-19T01:04:36.846Z,25.90
2022-12-19T01:06:10.568Z,17.00
2022-12-19T01:07:43.156Z,21.90
2022-12-19T01:09:15.058Z,28.70
2022-12-19T01:10:50.070Z,25.70
2022-12-19T01:12:40.809Z,26.50
2022-12-19T01:14:22.711Z,21.80
2022-12-19T01:16:01.678Z,20.50
2022-12-19T01:17:43.831Z,23.60
2022-12-19T01:19:17.546Z,21.70
2022-12-19T01:20:52.033Z,28.00
2022-12-19T01:22:23.896Z,22.60
2022-12-19T01:23:55.919Z,23.40
2022-12-19T01:25:28.490Z,28.90
2022-12-19T01:27:00.375Z,23.60
2022-12-19T01:28:32.574Z,25.70
2022-12-19T01:30:07.790Z,29.10
2022-12-19T01:31:40.137Z,24.10
2022-12-19T01:33:15.696Z,24.40
2022-12-19T01:34:47.605Z,26.30
2022-12-19T01:36:19.486Z,24.90
2022-12-19T01:38:08.615Z,22.50
2022-12-19T01:39:40.680Z,18.00
2022-12-19T01:41:14.846Z,24.60
2022-12-19T01:42:48.132Z,26.40
2022-12-19T01:44:26.627Z,21.90
2022-12-19T01:46:04.409Z,26.20
2022-12-19T01:47:53.652Z,29.00
2022-12-19T01:49:33.401Z,25.10
2022-12-19T01:51:19.587Z,27.00
2022-12-19T01:52:57.160Z,20.10
2022-12-19T01:54:39.934Z,25.70
2022-12-19T01:56:12.320Z,22.90
2022-12-19T01:57:47.585Z,29.00
2022-12-19T01:59:36.946Z,26.00
2022-12-19T02:01:09.307Z,24.20
2022-12-19T02:03:11.263Z,24.20
2022-12-19T02:04:48.361Z,25.90
2022-12-19T02:06:22.199Z,18.90
2022-12-19T02:07:54.925Z,16.70
2022-12-19T02:09:27.498Z,25.80
2022-12-19T02:10:59.340Z,22.90
2022-12-19T02:12:38.001Z,24.10
2022-12-19T02:14:10.479Z,24.80
2022-12-19T02:16:08.934Z,19.40
2022-12-19T02:18:19.761Z,26.20
2022-12-19T02:20:19.351Z,27.10
2022-12-19T02:22:18.967Z,25.90
2022-12-19T02:24:35.002Z,27.20
2022-12-19T02:26:45.542Z,22.60
2022-12-19T02:28:51.548Z,16.80
2022-12-19T02:30:54.081Z,22.60
2022-12-19T02:33:14.347Z,23.80
2022-12-19T02:35:05.522Z,18.90
2022-12-19T02:36:52.181Z,20.10
2022-12-19T02:39:03.316Z,25.90
2022-12-19T02:40:53.752Z,32.80
2022-12-19T02:42:35.741Z,22.30
2022-12-19T02:44:08.089Z,24.50
2022-12-19T02:45:42.896Z,18.40
2022-12-19T02:47:15.777Z,26.00
2022-12-19T02:48:48.652Z,24.50
2022-12-19T02:50:21.511Z,23.20
2022-12-19T02:51:53.678Z,24.10
2022-12-19T02:53:25.593Z,23.00
2022-12-19T02:55:09.488Z,20.60
2022-12-19T02:56:52.974Z,27.90
2022-12-19T02:58:33.784Z,21.60
2022-12-19T03:00:12.301Z,25.20
2022-12-19T03:01:47.459Z,22.70
2022-12-19T03:03:58.565Z,24.60
2022-12-19T03:05:50.907Z,22.10
2022-12-19T03:07:55.017Z,22.70
2022-12-19T03:09:57.847Z,22.60
2022-12-19T03:11:39.103Z,20.80
2022-12-19T03:13:44.435Z,20.10
2022-12-19T03:15:19.923Z,23.50
2022-12-19T03:16:52.939Z,24.70
2022-12-19T03:18:27.019Z,22.80
2022-12-19T03:19:59.049Z,23.30
2022-12-19T03:21:45.696Z,23.10
2022-12-19T03:23:18.561Z,26.10
2022-12-19T03:24:50.781Z,19.20
2022-12-19T03:26:28.985Z,22.20
2022-12-19T03:28:11.417Z,20.80
2022-12-19T03:30:00.417Z,25.00
2022-12-19T03:31:35.003Z,25.70
2022-12-19T03:33:12.165Z,19.70
2022-12-19T03:35:04.201Z,21.10
2022-12-19T03:36:46.682Z,22.20
2022-12-19T03:38:21.914Z,21.10
2022-12-19T03:40:01.208Z,23.40
2022-12-19T03:41:55.189Z,22.50
2022-12-19T03:43:29.409Z,20.00
2022-12-19T03:45:06.754Z,21.20
2022-12-19T03:46:51.923Z,21.10
2022-12-19T03:48:48.339Z,22.40
2022-12-19T03:50:24.187Z,21.30
2022-12-19T03:52:27.021Z,25.00
2022-12-19T03:54:27.050Z,22.60
2022-12-19T03:56:17.544Z,21.50
2022-12-19T03:58:24.507Z,21.60
2022-12-19T04:00:13.436Z,23.20
2022-12-19T04:01:48.384Z,19.80
2022-12-19T04:03:23.443Z,17.70
2022-12-19T04:05:06.106Z,26.10
2022-12-19T04:06:42.547Z,22.90
2022-12-19T04:08:16.758Z,21.80
2022-12-19T04:09:51.732Z,25.60
2022-12-19T04:11:27.820Z,18.70
2022-12-19T04:13:07.474Z,20.50
2022-12-19T04:14:40.921Z,23.50
2022-12-19T04:16:21.344Z,22.20
2022-12-19T04:17:59.427Z,22.30
2022-12-19T04:19:47.594Z,19.40
2022-12-19T04:21:31.833Z,22.10
2022-12-19T04:23:09.742Z,19.50
2022-12-19T04:24:45.572Z,23.00
2022-12-19T04:26:21.491Z,18.50
2022-12-19T04:28:02.651Z,23.80
2022-12-19T04:29:40.350Z,22.80
2022-12-19T04:31:17.551Z,24.50
2022-12-19T04:32:51.349Z,21.70
2022-12-19T04:34:23.385Z,20.80
2022-12-19T04:35:55.626Z,23.30
2022-12-19T04:37:32.150Z,24.60
2022-12-19T04:39:04.597Z,18.80
2022-12-19T04:40:40.891Z,21.50
2022-12-19T04:42:13.473Z,24.00
2022-12-19T04:43:45.300Z,21.70
2022-12-19T04:45:17.364Z,23.50
2022-12-19T04:46:49.553Z,20.80
2022-12-19T04:48:22.487Z,19.60
2022-12-19T04:49:56.690Z,22.80
2022-12-19T04:51:28.659Z,21.20
2022-12-19T04:53:01.266Z,19.10
2022-12-19T04:54:34.850Z,18.10
2022-12-19T04:56:08.136Z,24.30
2022-12-19T04:57:40.994Z,20.70
2022-12-19T04:59:14.232Z,18.60
2022-12-19T05:00:46.108Z,21.40
2022-12-19T05:02:20.920Z,21.00
2022-12-19T05:03:56.589Z,23.70
2022-12-19T05:05:30.540Z,25.50
2022-12-19T05:07:02.544Z,21.80
2022-12-19T05:08:36.250Z,19.80
2022-12-19T05:10:08.569Z,23.70
2022-12-19T05:11:40.496Z,22.90
2022-12-19T05:13:12.308Z,13.00
2022-12-19T05:14:47.129Z,22.40
2022-12-19T05:16:19.405Z,20.40
2022-12-19T05:17:52.682Z,13.20
2022-12-19T05:19:24.694Z,20.80
2022-12-19T05:20:56.781Z,20.60
2022-12-19T05:22:28.670Z,22.30
2022-12-19T05:24:00.801Z,23.90
2022-12-19T05:25:35.590Z,18.30
2022-12-19T05:27:07.847Z,23.60
2022-12-19T05:28:39.752Z,19.70
2022-12-19T05:30:12.227Z,20.20
2022-12-19T05:31:44.280Z,15.90
2022-12-19T05:33:18.506Z,20.10
2022-12-19T05:34:50.625Z,16.20
2022-12-19T05:36:25.381Z,21.60
2022-12-19T05:37:59.642Z,19.80
2022-12-19T05:39:31.438Z,17.20
2022-12-19T05:41:10.075Z,20.30
2022-12-19T05:42:42.165Z,18.40
2022-12-19T05:44:13.962Z,22.40
2022-12-19T05:45:45.731Z,19.70
2022-12-19T05:47:17.610Z,19.20
2022-12-19T05:48:50.207Z,18.70
2022-12-19T05:50:22.591Z,16.20
2022-12-19T05:51:55.957Z,23.90
2022-12-19T05:53:28.251Z,23.00
2022-12-19T05:55:00.207Z,21.20
2022-12-19T05:56:32.100Z,20.90
2022-12-19T05:58:03.982Z,19.50
2022-12-19T05:59:37.563Z,18.90
2022-12-19T06:01:18.433Z,18.50
2022-12-19T06:02:50.554Z,21.30
2022-12-19T06:04:22.539Z,17.30
2022-12-19T06:05:54.820Z,20.00
2022-12-19T06:07:26.628Z,16.10
2022-12-19T06:08:59.938Z,17.10
2022-12-19T06:10:31.861Z,20.90
2022-12-19T06:12:06.382Z,21.80
2022-12-19T06:13:39.229Z,19.70
2022-12-19T06:15:11.975Z,20.80
2022-12-19T06:16:43.996Z,19.60
2022-12-19T06:18:17.480Z,20.50
2022-12-19T06:19:49.382Z,22.10
2022-12-19T06:21:23.223Z,21.20
2022-12-19T06:22:56.847Z,19.30
2022-12-19T06:24:28.849Z,16.90
2022-12-19T06:26:03.823Z,18.90
2022-12-19T06:27:36.385Z,16.90
2022-12-19T06:29:08.503Z,16.40
2022-12-19T06:30:40.666Z,17.10
2022-12-19T06:32:15.507Z,20.90
2022-12-19T06:33:47.674Z,18.70
2022-12-19T06:35:21.702Z,20.60
2022-12-19T06:36:55.302Z,19.20
2022-12-19T06:38:28.858Z,16.20
2022-12-19T06:40:00.793Z,18.80
2022-12-19T06:41:51.613Z,18.70
2022-12-19T06:43:26.341Z,16.20
2022-12-19T06:44:58.319Z,18.50
2022-12-19T06:46:31.227Z,20.30
2022-12-19T06:48:03.035Z,16.60
2022-12-19T06:49:34.913Z,18.80
2022-12-19T06:51:07.254Z,18.60
2022-12-19T06:52:39.066Z,19.90
2022-12-19T06:54:13.083Z,14.90
2022-12-19T06:55:47.735Z,19.10
2022-12-19T06:57:19.574Z,19.70
2022-12-19T06:58:51.770Z,19.30
2022-12-19T07:00:24.318Z,15.90
2022-12-19T07:02:27.483Z,22.90
2022-12-19T07:03:59.722Z,17.10
2022-12-19T07:05:31.928Z,16.20
2022-12-19T07:07:04.803Z,14.40
2022-12-19T07:08:36.719Z,12.80
2022-12-19T07:10:09.712Z,18.30
2022-12-19T07:11:41.542Z,15.10
2022-12-19T07:13:13.792Z,17.30
2022-12-19T07:14:51.709Z,17.90
2022-12-19T07:16:27.674Z,14.50
2022-12-19T07:18:03.739Z,16.80
2022-12-19T07:19:36.484Z,17.20
2022-12-19T07:21:13.843Z,12.60
2022-12-19T07:22:46.816Z,15.90
2022-12-19T07:24:18.744Z,16.30
2022-12-19T07:25:50.794Z,16.50
2022-12-19T07:27:23.018Z,14.50
2022-12-19T07:28:55.045Z,13.90
2022-12-19T07:30:26.907Z,15.50
2022-12-19T07:32:00.286Z,15.60
2022-12-19T07:33:32.273Z,20.10
2022-12-19T07:35:04.555Z,17.30
2022-12-19T07:36:36.510Z,16.30
2022-12-19T07:38:08.810Z,15.40
2022-12-19T07:39:40.653Z,17.10
2022-12-19T07:41:12.835Z,15.80
2022-12-19T07:42:45.847Z,14.00
2022-12-19T07:44:18.298Z,20.00
2022-12-19T07:45:56.534Z,13.20
2022-12-19T07:47:28.443Z,15.50
2022-12-19T07:49:00.356Z,14.20
2022-12-19T07:50:33.271Z,16.30
2022-12-19T07:52:05.866Z,13.10
2022-12-19T07:53:37.993Z,16.90
2022-12-19T07:55:10.749Z,15.90
2022-12-19T07:56:44.389Z,14.20
2022-12-19T07:58:21.346Z,11.70
2022-12-19T07:59:53.550Z,13.30
2022-12-19T08:01:28.281Z,10.10
2022-12-19T08:03:02.752Z,13.30
2022-12-19T08:04:35.041Z,14.90
2022-12-19T08:06:08.201Z,12.00
2022-12-19T08:07:42.395Z,15.30
2022-12-19T08:09:14.624Z,18.10
2022-12-19T08:10:46.772Z,14.40
2022-12-19T08:12:18.646Z,16.70
2022-12-19T08:13:50.416Z,14.60
2022-12-19T08:15:22.228Z,15.00
2022-12-19T08:17:19.641Z,14.80
2022-12-19T08:18:46.462Z,15.90
2022-12-19T08:20:18.458Z,13.70
2022-12-19T08:21:50.681Z,12.30
2022-12-19T08:23:22.850Z,11.90
2022-12-19T08:24:54.768Z,16.10
2022-12-19T08:26:30.034Z,13.50
2022-12-19T08:28:04.462Z,10.40
2022-12-19T08:29:36.324Z,13.30
2022-12-19T08:31:17.947Z,12.10
2022-12-19T08:32:49.849Z,12.30
2022-12-19T08:34:21.691Z,16.70
2022-12-19T08:35:53.530Z,13.60
2022-12-19T08:37:26.457Z,14.60
2022-12-19T08:38:58.834Z,12.60
2022-12-19T08:40:31.957Z,13.00
2022-12-19T08:42:04.071Z,13.40
2022-12-19T08:43:39.359Z,19.10
2022-12-19T08:45:11.199Z,14.70
2022-12-19T08:46:49.483Z,16.90
2022-12-19T08:48:24.002Z,16.00
2022-12-19T08:49:56.970Z,13.20
2022-12-19T08:51:29.114Z,20.10
2022-12-19T08:53:01.547Z,19.80
2022-12-19T08:54:33.391Z,15.10
2022-12-19T08:56:19.876Z,14.40
2022-12-19T08:57:51.749Z,19.50
2022-12-19T08:59:31.821Z,15.30
2022-12-19T09:01:11.518Z,14.70
2022-12-19T09:02:43.498Z,16.60
2022-12-19T09:05:02.084Z,16.70
2022-12-19T09:06:15.573Z,12.50
2022-12-19T09:07:51.068Z,13.20
2022-12-19T09:09:22.832Z,15.30
2022-12-19T09:11:03.705Z,13.30
2022-12-19T09:12:35.524Z,14.20
2022-12-19T09:14:07.464Z,13.80
2022-12-19T09:15:39.373Z,14.00
2022-12-19T09:17:13.285Z,13.30
2022-12-19T09:18:48.952Z,16.00
2022-12-19T09:20:23.351Z,13.20
2022-12-19T09:21:55.647Z,15.10
2022-12-19T09:23:29.434Z,14.00
2022-12-19T09:25:01.761Z,14.50
2022-12-19T09:26:34.024Z,9.80
2022-12-19T09:30:01.488Z,13.10
2022-12-19T09:31:33.551Z,14.00
2022-12-19T09:33:06.010Z,13.30
2022-12-19T09:34:39.193Z,16.20
2022-12-19T09:36:23.386Z,18.00
2022-12-19T09:38:00.104Z,11.80
2022-12-19T09:39:33.276Z,15.80
2022-12-19T09:41:55.171Z,11.00
2022-12-19T09:44:07.047Z,11.20
2022-12-19T09:46:20.512Z,15.20
2022-12-19T09:48:00.485Z,14.30
2022-12-19T09:49:42.951Z,14.20
2022-12-19T09:51:58.571Z,13.50
2022-12-19T09:53:58.931Z,10.70
2022-12-19T09:55:40.642Z,15.30
2022-12-19T09:57:55.700Z,12.20
2022-12-19T09:59:51.231Z,12.20
2022-12-19T10:01:36.694Z,14.70
2022-12-19T10:03:45.258Z,12.60
2022-12-19T10:07:11.271Z,12.90
2022-12-19T10:08:09.564Z,13.10
2022-12-19T10:12:34.821Z,12.30
2022-12-19T10:12:43.617Z,11.10
2022-12-19T10:14:12.184Z,14.50
2022-12-19T10:16:25.585Z,11.20
2022-12-19T10:18:35.920Z,11.90
2022-12-19T10:20:38.637Z,10.90
2022-12-19T10:22:18.707Z,10.30
2022-12-19T10:24:00.028Z,12.20
2022-12-19T10:25:51.947Z,11.00
2022-12-19T10:27:58.856Z,11.50
2022-12-19T10:30:12.909Z,13.40
2022-12-19T10:32:04.748Z,11.40
2022-12-19T10:34:13.249Z,12.60
2022-12-19T10:35:52.878Z,11.30
2022-12-19T10:37:47.257Z,12.20
2022-12-19T10:39:33.434Z,14.10
2022-12-19T10:41:20.046Z,12.50
2022-12-19T10:43:28.657Z,13.20
2022-12-19T10:45:17.771Z,11.50
2022-12-19T10:46:51.091Z,11.40
2022-12-19T10:48:30.275Z,13.00
2022-12-19T10:50:09.317Z,8.70
2022-12-19T10:51:42.740Z,14.10
2022-12-19T10:53:17.439Z,9.40
2022-12-19T10:54:49.357Z,11.60
2022-12-19T10:56:37.773Z,11.30
2022-12-19T10:58:22.895Z,11.30
2022-12-19T10:59:57.728Z,10.00
2022-12-19T11:01:44.940Z,11.60
2022-12-19T11:03:20.106Z,11.10
2022-12-19T11:04:53.030Z,11.30
2022-12-19T11:06:49.440Z,11.30
2022-12-19T11:08:33.778Z,11.30
2022-12-19T11:12:20.526Z,11.50
2022-12-19T11:15:24.194Z,10.70
2022-12-19T11:19:29.316Z,11.50
2022-12-19T11:24:27.953Z,10.50
2022-12-19T11:29:15.011Z,11.50
2022-12-19T11:29:31.660Z,10.00
2022-12-19T11:29:38.156Z,11.90
2022-12-19T11:29:44.432Z,11.30
2022-12-19T11:30:46.080Z,10.50
2022-12-19T11:30:46.765Z,10.60
2022-12-19T11:32:45.498Z,10.90
2022-12-19T11:34:26.572Z,11.40
2022-12-19T11:36:02.799Z,13.40
2022-12-19T11:37:58.814Z,9.80
2022-12-19T11:40:05.893Z,10.40
2022-12-19T11:41:59.972Z,10.50
2022-12-19T11:43:49.620Z,9.70
2022-12-19T11:45:40.300Z,11.00
2022-12-19T11:47:56.792Z,10.80
2022-12-19T11:49:38.857Z,9.50
2022-12-19T11:51:33.295Z,11.50
2022-12-19T11:53:30.385Z,9.40
2022-12-19T11:55:30.242Z,10.60
2022-12-19T11:57:02.676Z,9.40
2022-12-19T11:58:34.681Z,11.40
2022-12-19T12:00:24.523Z,11.30
2022-12-19T12:02:42.772Z,9.40
2022-12-19T12:04:58.167Z,9.40
2022-12-19T12:07:08.048Z,13.20
2022-12-19T12:13:01.593Z,11.50
2022-12-19T12:19:40.044Z,10.00
2022-12-19T12:21:01.015Z,9.00
2022-12-19T12:27:26.100Z,10.30
2022-12-19T12:31:07.144Z,9.80
2022-12-19T12:31:21.921Z,12.50
2022-12-19T12:31:45.130Z,10.60
2022-12-19T12:31:46.585Z,8.60
2022-12-19T12:31:51.535Z,9.30
2022-12-19T12:35:38.559Z,11.10
2022-12-19T12:35:54.216Z,10.60
2022-12-19T12:39:38.958Z,9.80
2022-12-19T12:42:05.242Z,10.80
2022-12-19T12:43:48.443Z,11.80
2022-12-19T12:45:41.722Z,8.80
2022-12-19T12:47:26.546Z,12.50
2022-12-19T12:49:07.381Z,10.90
2022-12-19T12:50:42.378Z,11.30
2022-12-19T12:52:27.164Z,12.50
2022-12-19T12:54:11.136Z,10.10
2022-12-19T12:55:44.472Z,11.40
2022-12-19T12:57:28.716Z,9.20
2022-12-19T12:59:02.078Z,10.90
2022-12-19T13:00:35.929Z,9.90
2022-12-19T13:02:24.443Z,9.90
2022-12-19T13:04:13.713Z,9.10
2022-12-19T13:06:25.193Z,8.70
2022-12-19T13:07:57.610Z,10.80
2022-12-19T13:09:35.645Z,10.70
2022-12-19T13:11:55.052Z,9.80
2022-12-19T13:13:58.828Z,12.90
2022-12-19T13:15:38.550Z,11.10
2022-12-19T13:17:19.431Z,10.30
2022-12-19T13:19:29.251Z,10.80
2022-12-19T13:21:05.728Z,12.70
2022-12-19T13:23:00.191Z,9.40
2022-12-19T13:25:27.735Z,9.80
2022-12-19T13:27:02.718Z,11.20
2022-12-19T13:28:42.485Z,11.20
2022-12-19T13:30:19.808Z,10.60
2022-12-19T13:32:18.191Z,9.10
2022-12-19T13:33:58.934Z,8.80
2022-12-19T13:38:41.179Z,10.70
2022-12-19T13:39:49.684Z,10.60
2022-12-19T13:40:07.460Z,12.90
2022-12-19T13:42:15.602Z,11.20
2022-12-19T13:43:49.769Z,12.20
2022-12-19T13:45:31.429Z,11.20
2022-12-19T13:47:06.887Z,10.30
2022-12-19T13:48:47.607Z,10.20
2022-12-19T13:50:38.774Z,12.00
2022-12-19T13:52:13.024Z,10.70
2022-12-19T13:53:45.372Z,11.60
2022-12-19T13:55:20.175Z,10.30
2022-12-19T13:56:55.074Z,11.30
2022-12-19T13:58:33.949Z,12.10
2022-12-19T14:00:19.640Z,10.50
2022-12-19T14:01:54.474Z,8.80
2022-12-19T14:03:38.614Z,12.50
2022-12-19T14:06:16.118Z,11.50
2022-12-19T14:07:42.781Z,10.50
2022-12-19T14:12:13.097Z,12.10
2022-12-19T14:13:53.822Z,15.30
2022-12-19T14:15:45.239Z,12.40
2022-12-19T14:17:24.011Z,13.20
2022-12-19T14:18:56.997Z,10.30
2022-12-19T14:22:04.135Z,10.90
2022-12-19T14:22:26.993Z,10.00
2022-12-19T14:24:18.493Z,10.20
2022-12-19T14:28:18.147Z,10.10
2022-12-19T14:28:26.197Z,13.30
2022-12-19T14:30:25.988Z,9.90
2022-12-19T14:31:58.329Z,9.70
2022-12-19T14:34:04.637Z,13.50
2022-12-19T14:36:09.798Z,9.90
2022-12-19T14:39:18.192Z,8.90
2022-12-19T14:39:40.335Z,10.30
2022-12-19T14:42:02.474Z,10.00
2022-12-19T14:43:57.214Z,9.90
2022-12-19T14:52:35.126Z,11.80
2022-12-19T14:54:10.034Z,8.70
2022-12-19T14:54:18.274Z,9.20
2022-12-19T14:54:25.524Z,11.70
2022-12-19T14:54:32.370Z,9.70
2022-12-19T14:56:04.471Z,11.90
2022-12-19T14:58:50.713Z,12.40
2022-12-19T14:59:29.655Z,8.70
2022-12-19T15:01:10.175Z,10.20
2022-12-19T15:02:43.263Z,8.40
2022-12-19T15:04:52.945Z,10.50
2022-12-19T15:07:05.400Z,9.40
2022-12-19T15:08:12.213Z,10.30
2022-12-19T15:11:04.726Z,9.90
2022-12-19T15:12:56.601Z,10.10
2022-12-19T15:14:56.430Z,10.50
2022-12-19T15:16:05.250Z,11.00
2022-12-19T15:17:47.554Z,9.50
2022-12-19T15:19:19.295Z,10.00
2022-12-19T15:20:54.172Z,10.30
2022-12-19T15:22:25.961Z,11.70
2022-12-19T15:23:58.062Z,11.10
2022-12-19T15:26:02.112Z,9.50
2022-12-19T15:27:22.126Z,9.60
2022-12-19T15:42:17.276Z,9.80
2022-12-19T15:44:05.812Z,7.70
2022-12-19T15:45:38.092Z,10.90
2022-12-19T15:47:30.037Z,9.60
2022-12-19T15:49:02.702Z,10.50
2022-12-19T15:50:35.652Z,9.50
2022-12-19T15:52:17.972Z,9.60
2022-12-19T15:53:50.034Z,10.40
2022-12-19T15:55:26.439Z,11.20
2022-12-19T15:56:58.429Z,8.90
2022-12-19T15:58:30.542Z,11.00
2022-12-19T16:00:27.879Z,10.70
2022-12-19T16:01:59.764Z,9.30
2022-12-19T16:03:37.028Z,9.10
2022-12-19T16:05:11.493Z,10.20
2022-12-19T16:06:43.294Z,10.00
2022-12-19T16:08:22.856Z,10.10
2022-12-19T16:09:55.444Z,9.70
2022-12-19T16:11:27.644Z,9.70
2022-12-19T16:12:59.440Z,9.10
2022-12-19T16:14:31.388Z,10.00
2022-12-19T16:16:09.201Z,8.40
2022-12-19T16:17:46.920Z,9.00
2022-12-19T16:19:31.479Z,9.90
2022-12-19T16:21:03.540Z,8.90
2022-12-19T16:22:35.573Z,7.70
2022-12-19T16:24:07.771Z,8.90
2022-12-19T16:25:51.327Z,10.30
2022-12-19T16:27:29.166Z,8.80
2022-12-19T16:29:01.896Z,9.10
2022-12-19T16:30:35.000Z,7.80
2022-12-19T16:32:13.369Z,8.80
2022-12-19T16:33:45.110Z,9.90
2022-12-19T16:35:40.282Z,7.90
2022-12-19T16:37:13.948Z,9.00
2022-12-19T16:38:46.238Z,7.90
2022-12-19T16:40:22.677Z,9.10
2022-12-19T16:41:55.975Z,8.10
2022-12-19T16:43:36.778Z,8.80
2022-12-19T16:45:22.333Z,6.90
2022-12-19T16:46:54.512Z,7.80
2022-12-19T16:48:29.777Z,7.60
2022-12-19T16:50:16.005Z,8.10
2022-12-19T16:51:48.378Z,11.30
2022-12-19T16:53:20.243Z,7.30
2022-12-19T16:54:52.125Z,7.90
2022-12-19T16:56:34.321Z,8.10
2022-12-19T16:58:06.244Z,6.20
2022-12-19T16:59:40.317Z,5.80
2022-12-19T17:01:12.267Z,6.50
2022-12-19T17:03:05.778Z,7.20
2022-12-19T17:04:41.894Z,7.10
2022-12-19T17:06:18.677Z,8.20
2022-12-19T17:07:51.800Z,7.80
2022-12-19T17:09:25.321Z,9.00
2022-12-19T17:10:57.261Z,7.80
2022-12-19T17:12:29.380Z,7.10
2022-12-19T17:14:08.924Z,6.40
2022-12-19T17:15:42.972Z,7.30
2022-12-19T17:17:15.974Z,8.10
2022-12-19T17:18:48.854Z,7.00
2022-12-19T17:20:25.396Z,9.70
2022-12-19T17:21:57.272Z,7.00
2022-12-19T17:23:32.638Z,7.40
2022-12-19T17:25:26.398Z,7.50
2022-12-19T17:26:58.283Z,8.80
2022-12-19T17:28:30.069Z,6.60
2022-12-19T17:30:01.826Z,8.10
2022-12-19T17:31:38.302Z,7.90
2022-12-19T17:33:16.188Z,6.60
2022-12-19T17:34:47.984Z,7.40
2022-12-19T17:36:25.434Z,7.20
2022-12-19T17:37:59.048Z,7.50
2022-12-19T17:39:34.226Z,7.30
2022-12-19T17:41:06.365Z,7.50
2022-12-19T17:42:38.405Z,6.30
2022-12-19T17:44:11.680Z,7.80
2022-12-19T17:45:44.784Z,7.20
2022-12-19T17:47:20.089Z,7.40
2022-12-19T17:48:53.589Z,5.60
2022-12-19T17:50:34.656Z,6.90
2022-12-19T17:52:15.248Z,7.00
2022-12-19T17:53:47.591Z,7.90
2022-12-19T17:55:24.369Z,7.00
2022-12-19T17:56:56.909Z,6.90
2022-12-19T17:58:29.848Z,10.40
2022-12-19T18:00:01.862Z,6.50
2022-12-19T18:01:35.596Z,8.90
2022-12-19T18:03:24.485Z,7.90
2022-12-19T18:04:58.375Z,7.10
2022-12-19T18:06:30.145Z,8.30
2022-12-19T18:08:03.162Z,7.90
2022-12-19T18:09:34.860Z,7.80
2022-12-19T18:11:17.504Z,8.80
2022-12-19T18:12:50.472Z,6.60
2022-12-19T18:14:22.322Z,7.80
2022-12-19T18:16:00.138Z,7.80
2022-12-19T18:17:32.030Z,7.10
2022-12-19T18:19:05.181Z,7.70
2022-12-19T18:20:36.984Z,7.30
2022-12-19T18:22:13.475Z,6.20
2022-12-19T18:23:46.369Z,6.00
2022-12-19T18:25:24.190Z,7.80
2022-12-19T18:26:56.132Z,7.90
2022-12-19T18:28:28.011Z,6.90
2022-12-19T18:30:00.016Z,8.00
2022-12-19T18:31:31.988Z,7.90
2022-12-19T18:33:05.766Z,6.00
2022-12-19T18:34:37.592Z,5.90
2022-12-19T18:36:22.098Z,8.20
2022-12-19T18:37:56.324Z,7.10
2022-12-19T18:39:29.292Z,6.20
2022-12-19T18:41:01.233Z,7.50
2022-12-19T18:42:33.202Z,7.60
2022-12-19T18:44:05.273Z,6.80
2022-12-19T18:45:41.982Z,6.20
2022-12-19T18:47:23.077Z,7.20
2022-12-19T18:48:55.627Z,6.80
2022-12-19T18:50:29.687Z,7.00
2022-12-19T18:52:01.467Z,6.70
2022-12-19T18:53:35.791Z,7.40
2022-12-19T18:55:18.241Z,7.10
2022-12-19T18:56:50.178Z,6.70
2022-12-19T18:58:21.926Z,7.10
2022-12-19T18:59:53.907Z,6.50
2022-12-19T19:01:26.977Z,7.40
2022-12-19T19:03:04.096Z,7.80
2022-12-19T19:04:36.123Z,7.30
2022-12-19T19:06:21.810Z,6.80
2022-12-19T19:07:56.879Z,7.30
2022-12-19T19:09:28.623Z,5.90
2022-12-19T19:11:29.977Z,8.30
2022-12-19T19:13:08.240Z,6.70
2022-12-19T19:14:41.943Z,6.70
2022-12-19T19:16:21.238Z,6.50
2022-12-19T19:18:00.354Z,8.10
2022-12-19T19:19:32.232Z,7.60
2022-12-19T19:21:07.157Z,7.30
2022-12-19T19:22:39.130Z,6.70
2022-12-19T19:24:15.867Z,7.00
2022-12-19T19:25:47.798Z,6.50
2022-12-19T19:27:19.522Z,5.80
2022-12-19T19:28:52.671Z,6.70
2022-12-19T19:30:25.155Z,7.40
2022-12-19T19:31:57.015Z,7.00
2022-12-19T19:33:35.911Z,6.00
2022-12-19T19:35:09.970Z,5.60
2022-12-19T19:36:49.375Z,6.20
2022-12-19T19:38:23.400Z,6.80
2022-12-19T19:39:55.198Z,6.30
2022-12-19T19:41:29.868Z,6.10
2022-12-19T19:43:01.800Z,5.70
2022-12-19T19:44:33.789Z,6.30
2022-12-19T19:46:05.934Z,8.10
2022-12-19T19:47:37.775Z,5.20
2022-12-19T19:49:09.533Z,5.50
2022-12-19T19:50:41.451Z,7.00
2022-12-19T19:52:13.206Z,6.30
2022-12-19T19:53:45.050Z,6.30
2022-12-19T19:55:17.310Z,7.10
2022-12-19T19:56:49.157Z,7.90
2022-12-19T19:58:21.173Z,8.00
2022-12-19T19:59:53.006Z,6.40
2022-12-19T20:01:24.994Z,6.40
2022-12-19T20:02:57.158Z,6.20
2022-12-19T20:04:29.311Z,5.50
2022-12-19T20:06:02.547Z,6.60
2022-12-19T20:07:34.366Z,7.20
2022-12-19T20:09:06.171Z,6.40
2022-12-19T20:10:38.349Z,5.60
2022-12-19T20:12:10.194Z,7.30
2022-12-19T20:13:41.990Z,6.40
2022-12-19T20:15:13.788Z,7.50
2022-12-19T20:16:45.611Z,5.70
2022-12-19T20:18:18.299Z,6.80
2022-12-19T20:19:50.895Z,6.90
2022-12-19T20:21:24.610Z,6.00
2022-12-19T20:22:56.430Z,7.70
2022-12-19T20:24:28.368Z,6.50
2022-12-19T20:26:02.168Z,7.20
2022-12-19T20:27:33.945Z,7.10
2022-12-19T20:29:06.862Z,5.60
2022-12-19T20:30:39.510Z,6.50
2022-12-19T20:32:11.521Z,5.50
2022-12-19T20:33:43.536Z,6.50
2022-12-19T20:35:16.239Z,6.90
2022-12-19T20:36:48.064Z,7.00
2022-12-19T20:38:19.842Z,5.50
2022-12-19T20:39:52.885Z,4.80
2022-12-19T20:41:24.899Z,6.50
2022-12-19T20:42:56.847Z,5.60
2022-12-19T20:44:29.581Z,6.60
2022-12-19T20:46:07.196Z,7.30
2022-12-19T20:47:39.132Z,6.90
2022-12-19T20:49:12.367Z,7.40
2022-12-19T20:50:44.416Z,4.60
2022-12-19T20:52:16.220Z,5.10
2022-12-19T20:53:51.229Z,6.40
2022-12-19T20:55:23.055Z,5.50
2022-12-19T20:56:54.814Z,5.50
2022-12-19T20:58:29.702Z,7.00
2022-12-19T21:00:01.758Z,6.20
2022-12-19T21:01:33.822Z,6.60
2022-12-19T21:04:57.559Z,7.60
2022-12-19T21:06:29.904Z,5.80
2022-12-19T21:08:01.623Z,5.80
2022-12-19T21:09:33.545Z,5.10
2022-12-19T21:11:08.136Z,6.70
2022-12-19T21:12:45.532Z,5.60
2022-12-19T21:14:19.277Z,5.20
2022-12-19T21:16:00.104Z,5.10
2022-12-19T21:17:31.975Z,4.30
2022-12-19T21:19:04.154Z,7.10
2022-12-19T21:20:38.557Z,5.70
2022-12-19T21:22:10.948Z,6.20
2022-12-19T21:23:43.806Z,5.30
2022-12-19T21:25:15.809Z,5.40
2022-12-19T21:26:57.498Z,6.30
2022-12-19T21:28:30.622Z,6.10
2022-12-19T21:30:02.469Z,5.80
2022-12-19T21:31:34.691Z,4.60
2022-12-19T21:33:06.631Z,5.50
2022-12-19T21:34:38.415Z,6.60
2022-12-19T21:36:20.477Z,5.10
2022-12-19T21:37:52.496Z,5.20
2022-12-19T21:39:25.694Z,6.20
2022-12-19T21:40:57.446Z,5.20
2022-12-19T21:42:29.277Z,5.60
2022-12-19T21:44:01.461Z,5.30
2022-12-19T21:45:33.189Z,5.00
2022-12-19T21:47:05.030Z,6.10
2022-12-19T21:48:43.467Z,6.70
2022-12-19T21:50:15.747Z,8.00
2022-12-19T21:51:47.503Z,5.70
2022-12-19T21:53:19.523Z,5.70
2022-12-19T21:54:51.465Z,5.20
2022-12-19T21:56:39.146Z,5.60
2022-12-19T21:58:10.915Z,6.10
2022-12-19T21:59:42.696Z,5.90
2022-12-19T22:01:15.682Z,3.70
2022-12-19T22:03:12.015Z,5.80
2022-12-19T22:04:39.707Z,5.60
2022-12-19T22:06:27.859Z,6.90
2022-12-19T22:08:00.387Z,6.80
2022-12-19T22:09:32.348Z,5.50